createdAt,value
2023-05-19T00:00:11.100Z,26.81
2023-05-19T00:03:00.667Z,26.81
2023-05-19T00:05:30.775Z,26.82
2023-05-19T00:07:59.927Z,26.84
2023-05-19T00:10:31.876Z,26.85
2023-05-19T00:13:00.304Z,26.86
2023-05-19T00:15:28.707Z,26.87
2023-05-19T00:17:56.828Z,26.88
2023-05-19T00:20:24.887Z,26.89
2023-05-19T00:22:52.855Z,26.89
2023-05-19T00:25:21.303Z,26.89
2023-05-19T00:27:49.219Z,26.89
2023-05-19T00:30:17.270Z,26.90
2023-05-19T00:32:45.408Z,26.91
2023-05-19T00:35:13.598Z,26.91
2023-05-19T00:37:41.613Z,26.91
2023-05-19T00:40:09.867Z,26.91
2023-05-19T00:42:37.908Z,26.91
2023-05-19T00:45:06.543Z,26.91
2023-05-19T00:47:35.242Z,26.92
2023-05-19T00:50:03.579Z,26.92
2023-05-19T00:52:31.702Z,26.92
2023-05-19T00:54:59.941Z,26.92
2023-05-19T00:57:28.248Z,26.92
2023-05-19T00:59:56.672Z,26.93
2023-05-19T01:02:24.788Z,26.91
2023-05-19T01:04:53.709Z,26.92
2023-05-19T01:07:21.673Z,26.91
2023-05-19T01:09:49.921Z,26.92
2023-05-19T01:12:18.182Z,26.91
2023-05-19T01:14:46.280Z,26.91
2023-05-19T01:18:08.632Z,26.91
2023-05-19T01:20:42.819Z,26.89
2023-05-19T01:23:38.502Z,26.89
2023-05-19T01:26:50.914Z,26.89
2023-05-19T01:29:50.371Z,26.88
2023-05-19T01:32:19.726Z,26.87
2023-05-19T01:34:49.226Z,26.86
2023-05-19T01:37:17.173Z,26.88
2023-05-19T01:39:46.891Z,26.89
2023-05-19T01:42:15.250Z,26.89
2023-05-19T01:44:43.359Z,26.90
2023-05-19T01:47:11.474Z,26.90
2023-05-19T01:49:39.448Z,26.91
2023-05-19T01:52:07.762Z,26.92
2023-05-19T01:54:36.078Z,26.92
2023-05-19T01:57:14.963Z,26.93
2023-05-19T01:59:52.812Z,26.93
2023-05-19T02:02:34.454Z,26.93
2023-05-19T02:05:09.476Z,26.93
2023-05-19T02:07:44.527Z,26.93
2023-05-19T02:10:15.563Z,26.94
2023-05-19T02:12:43.785Z,26.94
2023-05-19T02:15:13.211Z,26.95
2023-05-19T02:17:47.811Z,26.96
2023-05-19T02:20:16.315Z,26.97
2023-05-19T02:22:44.632Z,26.96
2023-05-19T02:25:14.339Z,26.97
2023-05-19T02:27:42.381Z,26.97
2023-05-19T02:30:10.980Z,26.97
2023-05-19T02:32:39.777Z,26.98
2023-05-19T02:35:08.207Z,26.98
2023-05-19T02:37:36.312Z,26.97
2023-05-19T02:40:04.826Z,26.97
2023-05-19T02:42:32.820Z,26.97
2023-05-19T02:45:01.330Z,26.96
2023-05-19T02:47:29.482Z,26.97
2023-05-19T02:49:57.782Z,26.96
2023-05-19T02:52:25.871Z,26.96
2023-05-19T02:54:53.884Z,26.96
2023-05-19T02:57:22.025Z,26.96
2023-05-19T02:59:50.243Z,26.96
2023-05-19T03:02:18.653Z,26.97
2023-05-19T03:04:46.715Z,26.97
2023-05-19T03:07:15.687Z,26.97
2023-05-19T03:09:44.398Z,26.97
2023-05-19T03:12:12.800Z,26.97
2023-05-19T03:14:41.211Z,26.97
2023-05-19T03:17:10.722Z,26.98
2023-05-19T03:19:38.855Z,27.00
2023-05-19T03:22:06.997Z,27.02
2023-05-19T03:24:36.856Z,27.03
2023-05-19T03:27:06.036Z,27.04
2023-05-19T03:29:34.271Z,27.06
2023-05-19T03:32:02.344Z,27.07
2023-05-19T03:34:32.690Z,27.09
2023-05-19T03:37:01.376Z,27.10
2023-05-19T03:39:29.420Z,27.12
2023-05-19T03:41:57.701Z,27.14
2023-05-19T03:44:25.677Z,27.16
2023-05-19T03:46:53.785Z,27.17
2023-05-19T03:49:42.065Z,27.20
2023-05-19T03:52:30.116Z,27.22
2023-05-19T03:55:09.068Z,27.24
2023-05-19T03:57:37.937Z,27.26
2023-05-19T04:00:07.160Z,27.30
2023-05-19T04:02:40.856Z,27.34
2023-05-19T04:05:09.514Z,27.37
2023-05-19T04:07:38.499Z,27.40
2023-05-19T04:10:06.997Z,27.41
2023-05-19T04:12:35.035Z,27.42
2023-05-19T04:15:03.135Z,27.44
2023-05-19T04:17:31.427Z,27.48
2023-05-19T04:19:59.385Z,27.51
2023-05-19T04:22:27.511Z,27.54
2023-05-19T04:24:56.390Z,27.57
2023-05-19T04:27:27.913Z,27.58
2023-05-19T04:29:56.340Z,27.60
2023-05-19T04:32:24.590Z,27.63
2023-05-19T04:34:53.014Z,27.67
2023-05-19T04:37:26.005Z,27.71
2023-05-19T04:39:54.404Z,27.74
2023-05-19T04:42:26.310Z,27.77
2023-05-19T04:44:54.874Z,27.80
2023-05-19T04:47:28.195Z,27.84
2023-05-19T04:49:56.595Z,27.87
2023-05-19T04:52:24.539Z,27.89
2023-05-19T04:54:53.173Z,27.90
2023-05-19T04:57:21.649Z,27.94
2023-05-19T04:59:49.902Z,27.97
2023-05-19T05:02:18.399Z,28.00
2023-05-19T05:04:46.645Z,28.04
2023-05-19T05:07:14.808Z,28.08
2023-05-19T05:09:43.314Z,28.11
2023-05-19T05:12:12.240Z,28.14
2023-05-19T05:14:40.693Z,28.18
2023-05-19T05:17:12.145Z,28.21
2023-05-19T05:19:40.629Z,28.24
2023-05-19T05:22:09.278Z,28.28
2023-05-19T05:24:39.946Z,28.31
2023-05-19T05:27:10.421Z,28.34
2023-05-19T05:29:39.068Z,28.36
2023-05-19T05:32:08.237Z,28.40
2023-05-19T05:34:38.310Z,28.43
2023-05-19T05:37:06.699Z,28.46
2023-05-19T05:39:35.310Z,28.49
2023-05-19T05:42:03.617Z,28.51
2023-05-19T05:44:31.660Z,28.54
2023-05-19T05:47:00.166Z,28.57
2023-05-19T05:49:28.510Z,28.60
2023-05-19T05:52:05.474Z,28.63
2023-05-19T05:54:36.837Z,28.63
2023-05-19T05:57:05.747Z,28.59
2023-05-19T05:59:34.214Z,28.57
2023-05-19T06:02:02.583Z,28.54
2023-05-19T06:04:31.135Z,28.50
2023-05-19T06:07:01.780Z,28.45
2023-05-19T06:09:33.125Z,28.40
2023-05-19T06:12:01.796Z,28.36
2023-05-19T06:14:33.603Z,28.33
2023-05-19T06:17:37.141Z,28.30
2023-05-19T06:20:06.361Z,28.29
2023-05-19T06:22:34.531Z,28.27
2023-05-19T06:25:04.204Z,28.26
2023-05-19T06:27:33.981Z,28.25
2023-05-19T06:30:03.107Z,28.25
2023-05-19T06:32:34.260Z,28.25
2023-05-19T06:35:02.299Z,28.26
2023-05-19T06:37:30.769Z,28.25
2023-05-19T06:39:58.995Z,28.26
2023-05-19T06:42:27.664Z,28.27
2023-05-19T06:44:59.116Z,28.28
2023-05-19T06:47:28.235Z,28.29
2023-05-19T06:49:56.997Z,28.30
2023-05-19T06:52:27.408Z,28.26
2023-05-19T06:54:55.548Z,28.24
2023-05-19T06:57:23.865Z,28.22
2023-05-19T06:59:52.620Z,28.21
2023-05-19T07:02:20.964Z,28.21
2023-05-19T07:04:51.498Z,28.21
2023-05-19T07:07:20.079Z,28.19
2023-05-19T07:09:48.540Z,28.17
2023-05-19T07:12:16.598Z,28.17
2023-05-19T07:14:45.058Z,28.18
2023-05-19T07:17:14.939Z,28.19
2023-05-19T07:19:44.832Z,28.21
2023-05-19T07:22:12.847Z,28.22
2023-05-19T07:24:41.125Z,28.23
2023-05-19T07:27:10.083Z,28.24
2023-05-19T07:29:38.189Z,28.26
2023-05-19T07:32:06.773Z,28.26
2023-05-19T07:34:34.930Z,28.27
2023-05-19T07:37:04.275Z,28.27
2023-05-19T07:39:34.035Z,28.27
2023-05-19T07:42:02.536Z,28.27
2023-05-19T07:44:31.565Z,28.26
2023-05-19T07:47:01.386Z,28.26
2023-05-19T07:49:29.667Z,28.26
2023-05-19T07:51:57.873Z,28.25
2023-05-19T07:54:26.018Z,28.20
2023-05-19T07:56:53.975Z,28.11
2023-05-19T07:59:21.918Z,28.05
2023-05-19T08:01:49.840Z,28.01
2023-05-19T08:04:18.005Z,28.02
2023-05-19T08:06:46.161Z,28.02
2023-05-19T08:09:14.576Z,28.01
2023-05-19T08:11:42.650Z,28.00
2023-05-19T08:14:10.946Z,27.99
2023-05-19T08:16:38.878Z,27.99
2023-05-19T08:19:07.651Z,27.97
2023-05-19T08:21:36.874Z,27.96
2023-05-19T08:24:05.051Z,27.93
2023-05-19T08:26:34.175Z,27.92
2023-05-19T08:29:03.761Z,27.92
2023-05-19T08:31:32.683Z,27.91
2023-05-19T08:34:01.162Z,27.89
2023-05-19T08:36:30.834Z,27.88
2023-05-19T08:38:58.858Z,27.88
2023-05-19T08:41:26.820Z,27.87
2023-05-19T08:43:55.089Z,27.86
2023-05-19T08:46:24.083Z,27.88
2023-05-19T08:48:54.646Z,27.87
2023-05-19T08:51:35.006Z,27.86
2023-05-19T08:54:25.806Z,27.85
2023-05-19T08:56:54.385Z,27.84
2023-05-19T08:59:22.475Z,27.83
2023-05-19T09:01:50.385Z,27.83
2023-05-19T09:04:18.503Z,27.82
2023-05-19T09:06:46.794Z,27.81
2023-05-19T09:09:15.610Z,27.78
2023-05-19T09:11:46.554Z,27.75
2023-05-19T09:14:14.519Z,27.74
2023-05-19T09:16:42.632Z,27.71
2023-05-19T09:19:15.453Z,27.69
2023-05-19T09:21:44.581Z,27.66
2023-05-19T09:24:12.816Z,27.64
2023-05-19T09:26:42.220Z,27.63
2023-05-19T09:29:16.495Z,27.60
2023-05-19T09:31:54.798Z,27.59
2023-05-19T09:34:24.846Z,27.57
2023-05-19T09:36:53.872Z,27.55
2023-05-19T09:39:25.934Z,27.54
2023-05-19T09:41:54.487Z,27.53
2023-05-19T09:44:29.925Z,27.52
2023-05-19T09:46:58.711Z,27.50
2023-05-19T09:49:32.799Z,27.49
2023-05-19T09:52:03.543Z,27.48
2023-05-19T09:54:32.624Z,27.47
2023-05-19T09:57:05.179Z,27.46
2023-05-19T09:59:34.785Z,27.46
2023-05-19T10:02:03.261Z,27.45
2023-05-19T10:04:31.620Z,27.46
2023-05-19T10:07:00.317Z,27.45
2023-05-19T10:09:29.103Z,27.46
2023-05-19T10:11:57.893Z,27.45
2023-05-19T10:14:27.122Z,27.46
2023-05-19T10:16:58.938Z,27.47
2023-05-19T10:19:28.132Z,27.46
2023-05-19T10:21:57.370Z,27.45
2023-05-19T10:24:25.502Z,27.44
2023-05-19T10:26:58.722Z,27.43
2023-05-19T10:29:32.120Z,27.42
2023-05-19T10:32:02.374Z,27.42
2023-05-19T10:35:27.259Z,27.41
2023-05-19T10:38:14.571Z,27.39
2023-05-19T10:40:51.924Z,27.38
2023-05-19T10:43:46.260Z,27.37
2023-05-19T10:46:14.485Z,27.37
2023-05-19T10:48:46.182Z,27.36
2023-05-19T10:51:14.918Z,27.36
2023-05-19T10:53:50.248Z,27.36
2023-05-19T10:56:33.858Z,27.37
2023-05-19T10:59:02.497Z,27.36
2023-05-19T11:01:35.167Z,27.36
2023-05-19T11:04:14.054Z,27.36
2023-05-19T11:06:42.261Z,27.34
2023-05-19T11:09:15.544Z,27.33
2023-05-19T11:11:48.008Z,27.33
2023-05-19T11:14:19.810Z,27.31
2023-05-19T11:16:48.507Z,27.30
2023-05-19T11:19:32.807Z,27.29
2023-05-19T11:22:11.259Z,27.27
2023-05-19T11:24:50.603Z,27.26
2023-05-19T11:27:32.717Z,27.25
2023-05-19T11:30:06.764Z,27.24
2023-05-19T11:32:35.917Z,27.23
2023-05-19T11:35:04.124Z,27.23
2023-05-19T11:37:32.547Z,27.22
2023-05-19T11:40:07.068Z,27.22
2023-05-19T11:42:36.191Z,27.22
2023-05-19T11:45:05.080Z,27.22
2023-05-19T11:47:42.141Z,27.21
2023-05-19T11:50:15.612Z,27.21
2023-05-19T11:52:47.744Z,27.20
2023-05-19T11:55:19.549Z,27.19
2023-05-19T11:58:03.801Z,27.19
2023-05-19T12:00:40.708Z,27.18
2023-05-19T12:03:09.677Z,27.17
2023-05-19T12:05:43.425Z,27.17
2023-05-19T12:08:12.341Z,27.16
2023-05-19T12:10:40.514Z,27.16
2023-05-19T12:13:10.120Z,27.17
2023-05-19T12:15:38.933Z,27.16
2023-05-19T12:18:07.427Z,27.16
2023-05-19T12:20:36.119Z,27.16
2023-05-19T12:23:04.854Z,27.15
2023-05-19T12:25:36.092Z,27.15
2023-05-19T12:28:05.009Z,27.14
2023-05-19T12:30:34.722Z,27.15
2023-05-19T12:33:03.614Z,27.14
2023-05-19T12:35:34.099Z,27.13
2023-05-19T12:38:04.888Z,27.12
2023-05-19T12:40:35.765Z,27.11
2023-05-19T12:43:05.716Z,27.10
2023-05-19T12:45:38.299Z,27.10
2023-05-19T12:48:11.697Z,27.09
2023-05-19T12:50:39.966Z,27.08
2023-05-19T12:53:11.608Z,27.08
2023-05-19T12:55:43.333Z,27.08
2023-05-19T12:58:12.044Z,27.06
2023-05-19T13:00:50.614Z,27.06
2023-05-19T13:03:19.720Z,27.05
2023-05-19T13:05:50.556Z,27.05
2023-05-19T13:08:20.406Z,27.05
2023-05-19T13:10:51.906Z,27.05
2023-05-19T13:13:20.037Z,27.04
2023-05-19T13:15:51.083Z,27.04
2023-05-19T13:18:19.423Z,27.04
2023-05-19T13:20:49.336Z,27.04
2023-05-19T13:23:17.742Z,27.04
2023-05-19T13:25:46.064Z,27.03
2023-05-19T13:28:14.150Z,27.04
2023-05-19T13:30:43.528Z,27.03
2023-05-19T13:33:12.360Z,27.03
2023-05-19T13:35:40.430Z,27.03
2023-05-19T13:38:11.946Z,27.03
2023-05-19T13:40:40.366Z,27.02
2023-05-19T13:43:09.061Z,27.02
2023-05-19T13:45:37.431Z,27.01
2023-05-19T13:48:07.543Z,27.01
2023-05-19T13:50:35.933Z,27.00
2023-05-19T13:53:04.300Z,26.99
2023-05-19T13:55:33.180Z,26.98
2023-05-19T13:58:01.277Z,26.97
2023-05-19T14:00:30.830Z,26.97
2023-05-19T14:03:00.497Z,26.97
2023-05-19T14:05:29.110Z,26.95
2023-05-19T14:07:58.245Z,26.95
2023-05-19T14:10:26.537Z,26.95
2023-05-19T14:13:29.087Z,26.93
2023-05-19T14:15:43.036Z,26.93
2023-05-19T14:18:11.512Z,26.92
2023-05-19T14:20:39.595Z,26.92
2023-05-19T14:23:07.789Z,26.92
2023-05-19T14:25:35.835Z,26.92
2023-05-19T14:28:04.267Z,26.91
2023-05-19T14:30:32.681Z,26.91
2023-05-19T14:33:01.246Z,26.91
2023-05-19T14:35:29.402Z,26.91
2023-05-19T14:37:57.313Z,26.91
2023-05-19T14:40:25.462Z,26.90
2023-05-19T14:42:53.540Z,26.91
2023-05-19T14:45:21.526Z,26.91
2023-05-19T14:47:49.508Z,26.91
2023-05-19T14:50:17.998Z,26.90
2023-05-19T14:52:46.093Z,26.89
2023-05-19T14:55:14.018Z,26.89
2023-05-19T14:57:42.027Z,26.89
2023-05-19T15:00:10.628Z,26.88
2023-05-19T15:02:38.666Z,26.87
2023-05-19T15:05:08.075Z,26.87
2023-05-19T15:07:36.244Z,26.85
2023-05-19T15:10:04.803Z,26.85
2023-05-19T15:12:32.781Z,26.85
2023-05-19T15:15:00.885Z,26.84
2023-05-19T15:17:28.904Z,26.82
2023-05-19T15:19:57.125Z,26.81
2023-05-19T15:22:25.078Z,26.81
2023-05-19T15:24:53.168Z,26.79
2023-05-19T15:27:21.377Z,26.79
2023-05-19T15:29:49.622Z,26.79
2023-05-19T15:32:17.643Z,26.79
2023-05-19T15:34:45.711Z,26.78
2023-05-19T15:37:13.851Z,26.77
2023-05-19T15:39:41.789Z,26.77
2023-05-19T15:42:09.780Z,26.76
2023-05-19T15:44:38.590Z,26.75
2023-05-19T15:47:06.914Z,26.74
2023-05-19T15:49:35.364Z,26.74
2023-05-19T15:52:04.065Z,26.73
2023-05-19T15:54:32.162Z,26.72
2023-05-19T15:57:00.136Z,26.71
2023-05-19T15:59:28.223Z,26.70
2023-05-19T16:01:56.282Z,26.70
2023-05-19T16:04:24.663Z,26.69
2023-05-19T16:06:52.994Z,26.68
2023-05-19T16:09:21.073Z,26.66
2023-05-19T16:11:49.267Z,26.66
2023-05-19T16:14:17.415Z,26.66
2023-05-19T16:16:45.366Z,26.64
2023-05-19T16:19:13.533Z,26.64
2023-05-19T16:21:41.938Z,26.63
2023-05-19T16:24:09.934Z,26.61
2023-05-19T16:26:38.300Z,26.60
2023-05-19T16:29:06.223Z,26.59
2023-05-19T16:31:34.238Z,26.58
2023-05-19T16:34:02.467Z,26.58
2023-05-19T16:36:32.042Z,26.57
2023-05-19T16:39:00.170Z,26.56
2023-05-19T16:41:28.167Z,26.55
2023-05-19T16:43:56.120Z,26.54
2023-05-19T16:46:24.591Z,26.54
2023-05-19T16:48:53.056Z,26.53
2023-05-19T16:51:21.301Z,26.52
2023-05-19T16:53:49.415Z,26.52
2023-05-19T16:56:17.484Z,26.52
2023-05-19T16:58:46.552Z,26.51
2023-05-19T17:01:15.392Z,26.51
2023-05-19T17:03:43.336Z,26.51
2023-05-19T17:06:11.480Z,26.50
2023-05-19T17:08:39.495Z,26.50
2023-05-19T17:11:07.479Z,26.50
2023-05-19T17:13:36.760Z,26.50
2023-05-19T17:16:04.998Z,26.49
2023-05-19T17:18:32.919Z,26.49
2023-05-19T17:21:03.790Z,26.49
2023-05-19T17:23:32.991Z,26.48
2023-05-19T17:26:01.893Z,26.48
2023-05-19T17:28:30.357Z,26.47
2023-05-19T17:30:58.387Z,26.46
2023-05-19T17:33:26.661Z,26.46
2023-05-19T17:35:54.621Z,26.45
2023-05-19T17:38:22.741Z,26.45
2023-05-19T17:40:50.863Z,26.45
2023-05-19T17:43:19.050Z,26.45
2023-05-19T17:45:47.291Z,26.44
2023-05-19T17:48:16.131Z,26.43
2023-05-19T17:50:47.009Z,26.43
2023-05-19T17:53:16.121Z,26.42
2023-05-19T17:55:47.991Z,26.41
2023-05-19T17:58:16.301Z,26.41
2023-05-19T18:00:44.529Z,26.40
2023-05-19T18:03:12.932Z,26.40
2023-05-19T18:05:43.323Z,26.40
2023-05-19T18:08:13.056Z,26.39
2023-05-19T18:10:41.670Z,26.39
2023-05-19T18:13:11.122Z,26.39
2023-05-19T18:15:39.194Z,26.39
2023-05-19T18:18:10.686Z,26.39
2023-05-19T18:20:41.172Z,26.39
2023-05-19T18:23:09.321Z,26.38
2023-05-19T18:25:37.405Z,26.38
2023-05-19T18:28:05.644Z,26.37
2023-05-19T18:30:33.926Z,26.37
2023-05-19T18:33:04.000Z,26.37
2023-05-19T18:35:32.105Z,26.36
2023-05-19T18:38:00.140Z,26.36
2023-05-19T18:40:28.208Z,26.36
2023-05-19T18:42:56.105Z,26.35
2023-05-19T18:45:24.044Z,26.35
2023-05-19T18:47:52.221Z,26.34
2023-05-19T18:50:20.672Z,26.35
2023-05-19T18:52:48.922Z,26.34
2023-05-19T18:55:17.274Z,26.33
2023-05-19T18:57:46.137Z,26.33
2023-05-19T19:00:14.624Z,26.33
2023-05-19T19:02:43.155Z,26.32
2023-05-19T19:05:13.829Z,26.32
2023-05-19T19:07:43.304Z,26.31
2023-05-19T19:10:11.633Z,26.32
2023-05-19T19:12:39.865Z,26.31
2023-05-19T19:15:08.859Z,26.31
2023-05-19T19:17:37.230Z,26.30
2023-05-19T19:20:06.655Z,26.29
2023-05-19T19:22:34.651Z,26.28
2023-05-19T19:25:04.148Z,26.28
2023-05-19T19:27:35.610Z,26.27
2023-05-19T19:30:04.649Z,26.27
2023-05-19T19:32:32.714Z,26.27
2023-05-19T19:35:00.921Z,26.26
2023-05-19T19:37:29.058Z,26.27
2023-05-19T19:39:57.111Z,26.27
2023-05-19T19:42:25.132Z,26.27
2023-05-19T19:44:56.243Z,26.26
2023-05-19T19:47:24.312Z,26.26
2023-05-19T19:49:52.981Z,26.25
2023-05-19T19:52:21.074Z,26.25
2023-05-19T19:54:49.001Z,26.25
2023-05-19T19:57:17.419Z,26.25
2023-05-19T19:59:45.504Z,26.25
2023-05-19T20:02:14.008Z,26.24
2023-05-19T20:04:42.068Z,26.25
2023-05-19T20:07:10.429Z,26.24
2023-05-19T20:09:38.543Z,26.24
2023-05-19T20:12:06.951Z,26.24
2023-05-19T20:14:35.262Z,26.24
2023-05-19T20:17:03.684Z,26.23
2023-05-19T20:19:31.810Z,26.23
2023-05-19T20:22:00.389Z,26.23
2023-05-19T20:24:28.451Z,26.22
2023-05-19T20:26:56.636Z,26.23
2023-05-19T20:29:24.708Z,26.22
2023-05-19T20:31:55.484Z,26.22
2023-05-19T20:34:24.928Z,26.22
2023-05-19T20:36:53.012Z,26.22
2023-05-19T20:39:21.348Z,26.21
2023-05-19T20:41:49.384Z,26.21
2023-05-19T20:44:17.403Z,26.20
2023-05-19T20:46:45.642Z,26.20
2023-05-19T20:49:13.645Z,26.19
2023-05-19T20:51:41.707Z,26.19
2023-05-19T20:54:09.758Z,26.20
2023-05-19T20:56:37.779Z,26.19
2023-05-19T20:59:06.112Z,26.19
2023-05-19T21:01:34.155Z,26.18
2023-05-19T21:04:06.758Z,26.17
2023-05-19T21:06:36.714Z,26.18
2023-05-19T21:09:06.819Z,26.18
2023-05-19T21:11:36.201Z,26.17
2023-05-19T21:14:04.485Z,26.17
2023-05-19T21:16:38.738Z,26.16
2023-05-19T21:19:07.699Z,26.17
2023-05-19T21:21:38.489Z,26.16
2023-05-19T21:24:06.711Z,26.15
2023-05-19T21:26:35.993Z,26.15
2023-05-19T21:29:04.208Z,26.15
2023-05-19T21:31:35.529Z,26.15
2023-05-19T21:34:04.429Z,26.16
2023-05-19T21:36:35.435Z,26.15
2023-05-19T21:39:04.560Z,26.15
2023-05-19T21:41:33.983Z,26.15
2023-05-19T21:44:02.374Z,26.14
2023-05-19T21:46:33.129Z,26.14
2023-05-19T21:49:01.183Z,26.14
2023-05-19T21:51:32.235Z,26.14
2023-05-19T21:54:00.210Z,26.14
2023-05-19T21:56:29.905Z,26.12
2023-05-19T21:58:57.889Z,26.13
2023-05-19T22:01:28.189Z,26.12
2023-05-19T22:03:56.556Z,26.13
2023-05-19T22:06:26.916Z,26.11
2023-05-19T22:08:54.945Z,26.12
2023-05-19T22:11:25.261Z,26.11
2023-05-19T22:13:55.880Z,26.11
2023-05-19T22:16:25.200Z,26.10
2023-05-19T22:18:53.241Z,26.10
2023-05-19T22:21:23.593Z,26.10
2023-05-19T22:23:52.288Z,26.10
2023-05-19T22:26:22.155Z,26.09
2023-05-19T22:28:50.553Z,26.09
2023-05-19T22:31:19.890Z,26.08
2023-05-19T22:33:48.319Z,26.08
2023-05-19T22:36:18.835Z,26.08
2023-05-19T22:38:47.781Z,26.08
2023-05-19T22:41:18.036Z,26.07
2023-05-19T22:43:46.034Z,26.07
2023-05-19T22:46:14.052Z,26.06
2023-05-19T22:48:43.229Z,26.05
2023-05-19T22:51:11.237Z,26.06
2023-05-19T22:53:39.164Z,26.05
2023-05-19T22:56:08.881Z,26.04
2023-05-19T22:58:36.799Z,26.05
2023-05-19T23:01:07.424Z,26.04
2023-05-19T23:03:35.339Z,26.04
2023-05-19T23:06:05.765Z,26.03
2023-05-19T23:08:33.731Z,26.03
2023-05-19T23:11:04.022Z,26.03
2023-05-19T23:13:32.126Z,26.04
2023-05-19T23:16:02.556Z,26.03
2023-05-19T23:18:30.750Z,26.03
2023-05-19T23:21:01.119Z,26.03
2023-05-19T23:23:29.335Z,26.03
2023-05-19T23:25:58.716Z,26.03
2023-05-19T23:28:27.101Z,26.02
2023-05-19T23:30:57.538Z,26.01
2023-05-19T23:33:25.833Z,26.01
2023-05-19T23:35:56.458Z,26.01
2023-05-19T23:38:24.858Z,26.00
2023-05-19T23:40:55.386Z,25.99
2023-05-19T23:43:23.331Z,26.00
2023-05-19T23:45:53.660Z,26.00
2023-05-19T23:48:21.823Z,26.00
2023-05-19T23:50:52.059Z,25.98
2023-05-19T23:53:19.967Z,25.99
2023-05-19T23:55:47.967Z,25.98
2023-05-19T23:58:17.369Z,25.97
